createdAt,value
2018-11-27T00:01:10.034Z,60.73
2018-11-27T00:03:42.904Z,63.25
2018-11-27T00:06:10.010Z,59.95
2018-11-27T00:08:37.167Z,60.17
2018-11-27T00:11:04.301Z,62.17
2018-11-27T00:13:31.408Z,63.37
2018-11-27T00:15:58.502Z,59.48
2018-11-27T00:18:25.606Z,57.30
2018-11-27T00:20:52.748Z,58.55
2018-11-27T00:23:19.854Z,57.13
2018-11-27T00:25:46.939Z,55.03
2018-11-27T00:28:14.058Z,52.73
2018-11-27T00:30:41.162Z,60.08
2018-11-27T00:33:08.255Z,54.93
2018-11-27T00:35:35.359Z,53.80
2018-11-27T00:38:02.542Z,60.50
2018-11-27T00:40:29.704Z,58.20
2018-11-27T00:42:56.851Z,60.52
2018-11-27T00:45:23.986Z,52.23
2018-11-27T00:47:51.158Z,60.43
2018-11-27T00:50:20.727Z,55.83
2018-11-27T00:52:47.859Z,59.13
2018-11-27T00:55:16.051Z,53.45
2018-11-27T00:57:44.115Z,61.13
2018-11-27T01:00:13.414Z,61.97
2018-11-27T01:02:40.546Z,64.10
2018-11-27T01:05:10.906Z,54.87
2018-11-27T01:07:38.039Z,59.75
2018-11-27T01:10:07.747Z,54.60
2018-11-27T01:12:34.833Z,59.63
2018-11-27T01:15:01.947Z,56.20
2018-11-27T01:17:29.049Z,56.20
2018-11-27T01:19:56.155Z,54.93
2018-11-27T01:22:23.273Z,59.30
2018-11-27T01:24:50.390Z,59.00
2018-11-27T01:27:17.498Z,59.15
2018-11-27T01:29:44.591Z,59.95
2018-11-27T01:32:11.698Z,57.97
2018-11-27T01:34:39.087Z,58.13
2018-11-27T01:37:06.198Z,56.05
2018-11-27T01:39:33.295Z,58.23
2018-11-27T01:42:00.403Z,60.45
2018-11-27T01:44:27.517Z,57.48
2018-11-27T01:46:54.626Z,57.48
2018-11-27T01:49:21.740Z,57.10
2018-11-27T01:51:48.833Z,55.48
2018-11-27T01:54:15.939Z,64.25
2018-11-27T01:56:43.035Z,55.98
2018-11-27T01:59:10.137Z,64.55
2018-11-27T02:01:37.247Z,60.80
2018-11-27T02:04:05.184Z,55.58
2018-11-27T02:06:32.306Z,55.60
2018-11-27T02:08:59.415Z,65.25
2018-11-27T02:11:26.518Z,60.60
2018-11-27T02:13:53.602Z,60.95
2018-11-27T02:16:20.698Z,60.48
2018-11-27T02:18:47.867Z,61.37
2018-11-27T02:21:15.600Z,61.25
2018-11-27T02:23:42.724Z,61.85
2018-11-27T02:26:09.823Z,58.60
2018-11-27T02:28:36.926Z,57.20
2018-11-27T02:31:04.162Z,57.17
2018-11-27T02:33:31.279Z,55.27
2018-11-27T02:35:58.394Z,58.90
2018-11-27T02:38:25.491Z,57.73
2018-11-27T02:40:52.598Z,58.33
2018-11-27T02:43:19.710Z,60.25
2018-11-27T02:45:46.812Z,59.60
2018-11-27T02:48:13.918Z,61.60
2018-11-27T02:50:41.026Z,59.43
2018-11-27T02:53:08.113Z,61.08
2018-11-27T02:55:35.206Z,62.23
2018-11-27T02:58:02.315Z,63.05
2018-11-27T03:00:29.432Z,60.63
2018-11-27T03:02:56.543Z,63.65
2018-11-27T03:05:28.189Z,61.60
2018-11-27T03:07:55.334Z,62.80
2018-11-27T03:10:22.501Z,62.80
2018-11-27T03:12:50.196Z,62.10
2018-11-27T03:15:17.567Z,57.67
2018-11-27T03:17:44.714Z,62.27
2018-11-27T03:20:13.938Z,64.60
2018-11-27T03:22:41.063Z,65.72
2018-11-27T03:25:10.546Z,57.48
2018-11-27T03:27:37.983Z,59.00
2018-11-27T03:30:11.008Z,62.67
2018-11-27T03:32:38.154Z,61.33
2018-11-27T03:35:07.526Z,64.65
2018-11-27T03:37:34.633Z,62.38
2018-11-27T03:40:01.727Z,62.45
2018-11-27T03:42:28.855Z,59.53
2018-11-27T03:44:55.942Z,58.23
2018-11-27T03:47:23.054Z,65.37
2018-11-27T03:49:50.164Z,62.50
2018-11-27T03:52:17.272Z,60.12
2018-11-27T03:54:44.379Z,64.00
2018-11-27T03:57:11.478Z,64.58
2018-11-27T03:59:38.802Z,56.33
2018-11-27T04:02:05.966Z,60.50
2018-11-27T04:04:33.066Z,63.83
2018-11-27T04:07:00.186Z,61.90
2018-11-27T04:09:27.294Z,62.93
2018-11-27T04:11:54.379Z,64.60
2018-11-27T04:14:21.466Z,64.60
2018-11-27T04:16:48.550Z,58.48
2018-11-27T04:19:15.627Z,62.55
2018-11-27T04:21:42.734Z,57.05
2018-11-27T04:24:09.822Z,64.97
2018-11-27T04:26:36.927Z,64.95
2018-11-27T04:29:04.108Z,61.17
2018-11-27T04:31:31.214Z,60.90
2018-11-27T04:33:58.338Z,59.80
2018-11-27T04:36:25.434Z,68.10
2018-11-27T04:38:52.542Z,62.45
2018-11-27T04:41:19.656Z,66.65
2018-11-27T04:43:46.822Z,61.97
2018-11-27T04:46:13.956Z,64.22
2018-11-27T04:48:41.082Z,66.93
2018-11-27T04:51:08.164Z,60.87
2018-11-27T04:53:35.275Z,67.50
2018-11-27T04:56:02.390Z,62.50
2018-11-27T04:58:29.555Z,65.33
2018-11-27T05:00:56.666Z,65.55
2018-11-27T05:03:23.750Z,64.10
2018-11-27T05:05:50.825Z,67.43
2018-11-27T05:08:17.915Z,56.63
2018-11-27T05:10:44.994Z,58.10
2018-11-27T05:13:12.095Z,60.52
2018-11-27T05:15:39.194Z,67.15
2018-11-27T05:18:06.302Z,61.80
2018-11-27T05:20:33.395Z,64.43
2018-11-27T05:23:00.488Z,59.07
2018-11-27T05:25:27.582Z,62.47
2018-11-27T05:27:56.045Z,60.13
2018-11-27T05:30:25.322Z,66.43
2018-11-27T05:32:52.434Z,60.90
2018-11-27T05:35:28.506Z,66.95
2018-11-27T05:37:56.274Z,65.80
2018-11-27T05:40:24.109Z,57.45
2018-11-27T05:42:55.518Z,60.73
2018-11-27T05:45:23.355Z,59.17
2018-11-27T05:47:50.563Z,58.57
2018-11-27T05:50:18.021Z,63.90
2018-11-27T05:52:45.195Z,63.30
2018-11-27T05:55:12.761Z,59.95
2018-11-27T05:57:40.228Z,66.33
2018-11-27T06:00:15.339Z,64.30
2018-11-27T06:02:42.463Z,60.90
2018-11-27T06:05:11.429Z,62.23
2018-11-27T06:07:38.535Z,61.68
2018-11-27T06:10:06.974Z,51.63
2018-11-27T06:12:34.058Z,61.00
2018-11-27T06:15:01.160Z,62.57
2018-11-27T06:17:28.267Z,66.00
2018-11-27T06:19:55.358Z,53.80
2018-11-27T06:22:22.502Z,70.15
2018-11-27T06:24:49.578Z,67.17
2018-11-27T06:27:16.661Z,67.47
2018-11-27T06:29:43.775Z,63.48
2018-11-27T06:32:10.881Z,63.45
2018-11-27T06:34:37.962Z,62.37
2018-11-27T06:37:05.353Z,59.23
2018-11-27T06:39:32.472Z,62.70
2018-11-27T06:41:59.561Z,57.07
2018-11-27T06:44:26.659Z,59.42
2018-11-27T06:46:53.780Z,56.10
2018-11-27T06:49:20.862Z,61.20
2018-11-27T06:51:47.938Z,62.47
2018-11-27T06:54:15.051Z,62.73
2018-11-27T06:56:42.151Z,63.57
2018-11-27T06:59:09.239Z,56.70
2018-11-27T07:01:36.355Z,62.63
2018-11-27T07:04:03.485Z,61.58
2018-11-27T07:06:30.587Z,64.72
2018-11-27T07:08:57.713Z,62.90
2018-11-27T07:11:24.818Z,62.75
2018-11-27T07:13:51.927Z,64.93
2018-11-27T07:16:19.035Z,58.87
2018-11-27T07:18:46.131Z,63.27
2018-11-27T07:21:13.226Z,61.00
2018-11-27T07:23:40.327Z,59.57
2018-11-27T07:26:07.459Z,64.97
2018-11-27T07:28:34.571Z,69.85
2018-11-27T07:31:01.680Z,59.18
2018-11-27T07:33:28.798Z,59.93
2018-11-27T07:35:55.906Z,64.80
2018-11-27T07:38:23.006Z,67.37
2018-11-27T07:40:50.188Z,62.35
2018-11-27T07:43:17.314Z,61.50
2018-11-27T07:45:44.401Z,60.87
2018-11-27T07:48:11.486Z,61.03
2018-11-27T07:50:38.602Z,61.90
2018-11-27T07:53:06.176Z,59.48
2018-11-27T07:55:33.283Z,64.43
2018-11-27T07:58:00.402Z,60.80
2018-11-27T08:00:27.735Z,54.13
2018-11-27T08:02:56.064Z,60.78
2018-11-27T08:05:25.571Z,56.03
2018-11-27T08:07:53.849Z,61.47
2018-11-27T08:10:22.135Z,63.67
2018-11-27T08:12:49.221Z,67.53
2018-11-27T08:15:19.502Z,62.07
2018-11-27T08:17:46.641Z,56.15
2018-11-27T08:20:16.055Z,59.07
2018-11-27T08:22:43.180Z,60.85
2018-11-27T08:25:11.581Z,60.80
2018-11-27T08:27:38.709Z,68.83
2018-11-27T08:30:11.551Z,55.80
2018-11-27T08:32:38.890Z,65.77
2018-11-27T08:35:07.959Z,59.03
2018-11-27T08:37:35.050Z,55.73
2018-11-27T08:40:02.170Z,57.43
2018-11-27T08:42:29.275Z,62.50
2018-11-27T08:44:56.358Z,61.10
2018-11-27T08:47:23.463Z,63.10
2018-11-27T08:49:50.578Z,54.33
2018-11-27T08:52:17.666Z,60.20
2018-11-27T08:54:44.772Z,59.30
2018-11-27T08:57:11.878Z,61.77
2018-11-27T08:59:38.975Z,62.03
2018-11-27T09:02:06.078Z,61.23
2018-11-27T09:04:33.195Z,64.33
2018-11-27T09:07:00.303Z,59.60
2018-11-27T09:09:27.433Z,58.80
2018-11-27T09:11:54.526Z,59.60
2018-11-27T09:14:21.632Z,61.47
2018-11-27T09:16:48.811Z,59.23
2018-11-27T09:19:15.934Z,58.90
2018-11-27T09:21:43.031Z,63.33
2018-11-27T09:24:10.120Z,56.50
2018-11-27T09:26:37.226Z,63.67
2018-11-27T09:29:04.887Z,58.43
2018-11-27T09:31:32.003Z,60.13
2018-11-27T09:33:59.106Z,61.57
2018-11-27T09:36:26.207Z,61.93
2018-11-27T09:38:53.322Z,60.70
2018-11-27T09:41:20.501Z,59.20
2018-11-27T09:43:47.602Z,63.03
2018-11-27T09:46:14.708Z,67.70
2018-11-27T09:48:41.814Z,61.63
2018-11-27T09:51:08.918Z,60.23
2018-11-27T09:53:36.026Z,60.63
2018-11-27T09:56:03.124Z,64.37
2018-11-27T09:58:30.227Z,58.20
2018-11-27T10:00:57.346Z,60.83
2018-11-27T10:03:24.446Z,65.10
2018-11-27T10:05:51.558Z,64.07
2018-11-27T10:08:18.662Z,62.23
2018-11-27T10:10:45.787Z,61.90
2018-11-27T10:13:12.890Z,58.27
2018-11-27T10:15:40.003Z,59.20
2018-11-27T10:18:07.116Z,64.87
2018-11-27T10:20:38.380Z,80.97
2018-11-27T10:23:10.559Z,83.47
2018-11-27T10:25:37.671Z,86.33
2018-11-27T10:28:05.452Z,81.33
2018-11-27T10:30:32.818Z,89.77
2018-11-27T10:32:59.923Z,91.67
2018-11-27T10:35:29.507Z,89.07
2018-11-27T10:37:56.694Z,86.30
2018-11-27T10:40:23.807Z,91.37
2018-11-27T10:42:50.965Z,96.00
2018-11-27T10:45:19.106Z,100.10
2018-11-27T10:47:47.360Z,98.37
2018-11-27T10:50:15.454Z,88.90
2018-11-27T10:52:43.786Z,91.70
2018-11-27T10:55:12.170Z,95.07
2018-11-27T10:57:39.335Z,89.53
2018-11-27T11:00:15.632Z,85.40
2018-11-27T11:02:42.782Z,88.27
2018-11-27T11:05:09.914Z,93.80
2018-11-27T11:07:37.019Z,86.80
2018-11-27T11:10:05.374Z,86.53
2018-11-27T11:12:32.466Z,93.77
2018-11-27T11:15:00.342Z,90.43
2018-11-27T11:17:27.435Z,94.63
2018-11-27T11:19:54.538Z,89.97
2018-11-27T11:22:21.626Z,95.37
2018-11-27T11:24:48.739Z,96.37
2018-11-27T11:27:15.830Z,97.10
2018-11-27T11:29:42.930Z,93.73
2018-11-27T11:32:10.038Z,88.90
2018-11-27T11:34:37.146Z,90.13
2018-11-27T11:37:04.290Z,98.27
2018-11-27T11:39:31.406Z,93.03
2018-11-27T11:41:58.507Z,96.97
2018-11-27T11:44:25.603Z,89.43
2018-11-27T11:46:52.726Z,92.50
2018-11-27T11:49:19.832Z,97.40
2018-11-27T11:51:46.918Z,99.07
2018-11-27T11:54:14.043Z,92.53
2018-11-27T11:56:41.166Z,98.03
2018-11-27T11:59:08.281Z,102.73
2018-11-27T12:01:35.418Z,104.80
2018-11-27T12:04:02.522Z,100.00
2018-11-27T12:06:29.610Z,110.77
2018-11-27T12:08:56.693Z,115.73
2018-11-27T12:11:23.794Z,105.37
2018-11-27T12:13:50.910Z,112.33
2018-11-27T12:16:18.010Z,116.73
2018-11-27T12:18:45.115Z,117.80
2018-11-27T12:21:12.215Z,115.97
2018-11-27T12:23:39.314Z,118.67
2018-11-27T12:26:06.415Z,121.40
2018-11-27T12:28:33.514Z,123.70
2018-11-27T12:31:00.629Z,117.80
2018-11-27T12:33:27.762Z,118.13
2018-11-27T12:35:54.910Z,125.33
2018-11-27T12:38:22.021Z,121.13
2018-11-27T12:40:49.112Z,118.73
2018-11-27T12:43:16.239Z,117.27
2018-11-27T12:45:43.389Z,101.73
2018-11-27T12:48:10.517Z,109.70
2018-11-27T12:50:40.862Z,111.73
2018-11-27T12:53:09.544Z,113.33
2018-11-27T12:55:38.227Z,112.77
2018-11-27T12:58:06.092Z,122.90
2018-11-27T13:00:33.209Z,114.77
2018-11-27T13:03:00.320Z,126.20
2018-11-27T13:05:28.043Z,117.93
2018-11-27T13:08:01.452Z,118.27
2018-11-27T13:10:28.626Z,117.03
2018-11-27T13:12:55.798Z,121.03
2018-11-27T13:15:22.907Z,109.80
2018-11-27T13:17:50.859Z,94.20
2018-11-27T13:20:18.604Z,90.97
2018-11-27T13:22:46.090Z,94.93
2018-11-27T13:25:18.482Z,108.03
2018-11-27T13:27:45.714Z,115.23
2018-11-27T13:30:21.718Z,114.20
2018-11-27T13:32:56.486Z,116.57
2018-11-27T13:35:23.599Z,110.93
2018-11-27T13:37:50.714Z,113.43
2018-11-27T13:40:17.835Z,113.77
2018-11-27T13:42:44.970Z,115.97
2018-11-27T13:45:13.405Z,119.07
2018-11-27T13:47:41.030Z,105.30
2018-11-27T13:50:10.562Z,100.47
2018-11-27T13:52:38.218Z,102.80
2018-11-27T13:55:08.771Z,108.37
2018-11-27T13:57:35.886Z,102.63
2018-11-27T14:00:03.859Z,105.13
2018-11-27T14:02:30.958Z,106.83
2018-11-27T14:04:58.091Z,108.40
2018-11-27T14:07:25.194Z,114.10
2018-11-27T14:09:52.291Z,111.77
2018-11-27T14:12:19.412Z,109.77
2018-11-27T14:14:46.506Z,113.83
2018-11-27T14:17:13.619Z,110.17
2018-11-27T14:19:40.716Z,110.80
2018-11-27T14:22:07.860Z,110.83
2018-11-27T14:24:34.947Z,106.70
2018-11-27T14:27:02.474Z,104.40
2018-11-27T14:29:29.576Z,109.27
2018-11-27T14:31:56.679Z,113.10
2018-11-27T14:34:23.770Z,110.87
2018-11-27T14:36:50.898Z,115.57
2018-11-27T14:39:17.995Z,113.63
2018-11-27T14:41:45.107Z,108.47
2018-11-27T14:44:12.230Z,114.40
2018-11-27T14:46:39.347Z,110.07
2018-11-27T14:49:06.446Z,119.00
2018-11-27T14:51:33.539Z,114.13
2018-11-27T14:54:00.642Z,110.53
2018-11-27T14:56:27.762Z,103.77
2018-11-27T14:58:54.850Z,116.73
2018-11-27T15:01:21.979Z,114.13
2018-11-27T15:03:49.087Z,114.57
2018-11-27T15:06:16.196Z,111.80
2018-11-27T15:08:43.295Z,109.90
2018-11-27T15:11:12.718Z,104.10
2018-11-27T15:13:37.494Z,108.97
2018-11-27T15:16:04.677Z,114.37
2018-11-27T15:18:31.794Z,112.27
2018-11-27T15:20:58.903Z,112.63
2018-11-27T15:23:26.018Z,111.50
2018-11-27T15:25:53.130Z,107.73
2018-11-27T15:28:20.226Z,110.17
2018-11-27T15:30:47.338Z,106.73
2018-11-27T15:33:18.627Z,105.90
2018-11-27T15:35:41.567Z,102.60
2018-11-27T15:38:08.702Z,106.87
2018-11-27T15:40:37.090Z,99.77
2018-11-27T15:43:04.664Z,107.77
2018-11-27T15:45:33.465Z,104.40
2018-11-27T15:48:01.330Z,110.30
2018-11-27T15:50:28.445Z,100.87
2018-11-27T15:52:55.575Z,106.83
2018-11-27T15:55:29.846Z,105.67
2018-11-27T15:57:59.354Z,101.03
2018-11-27T16:00:26.478Z,112.50
2018-11-27T16:02:53.614Z,104.40
2018-11-27T16:05:20.739Z,103.63
2018-11-27T16:07:47.855Z,100.03
2018-11-27T16:10:16.165Z,108.63
2018-11-27T16:12:43.276Z,104.20
2018-11-27T16:15:15.805Z,103.80
2018-11-27T16:17:43.019Z,109.10
2018-11-27T16:20:12.122Z,108.93
2018-11-27T16:22:40.273Z,100.63
2018-11-27T16:25:09.371Z,109.37
2018-11-27T16:27:36.479Z,107.55
2018-11-27T16:30:09.924Z,110.57
2018-11-27T16:32:37.158Z,102.65
2018-11-27T16:35:04.934Z,104.67
2018-11-27T16:37:32.016Z,103.17
2018-11-27T16:39:59.127Z,101.45
2018-11-27T16:42:30.550Z,109.40
2018-11-27T16:44:53.387Z,112.37
2018-11-27T16:47:20.498Z,113.15
2018-11-27T16:49:47.610Z,102.02
2018-11-27T16:52:14.754Z,103.90
2018-11-27T16:54:41.850Z,113.70
2018-11-27T16:57:08.950Z,107.58
2018-11-27T16:59:36.059Z,110.92
2018-11-27T17:02:03.171Z,104.92
2018-11-27T17:04:30.289Z,117.33
2018-11-27T17:06:57.410Z,113.22
2018-11-27T17:09:24.515Z,117.47
2018-11-27T17:11:51.606Z,106.03
2018-11-27T17:14:18.748Z,108.90
2018-11-27T17:16:45.856Z,121.07
2018-11-27T17:19:12.951Z,118.50
2018-11-27T17:21:40.050Z,108.25
2018-11-27T17:24:07.166Z,111.62
2018-11-27T17:26:34.283Z,111.15
2018-11-27T17:29:01.393Z,118.80
2018-11-27T17:31:28.506Z,113.57
2018-11-27T17:34:01.027Z,111.77
2018-11-27T17:36:28.158Z,111.97
2018-11-27T17:38:55.270Z,119.55
2018-11-27T17:41:22.371Z,117.42
2018-11-27T17:43:49.475Z,126.78
2018-11-27T17:46:16.588Z,117.85
2018-11-27T17:48:43.773Z,119.28
2018-11-27T17:51:10.864Z,120.47
2018-11-27T17:53:37.973Z,111.83
2018-11-27T17:56:05.109Z,123.70
2018-11-27T17:58:32.214Z,124.60
2018-11-27T18:00:59.356Z,118.90
2018-11-27T18:03:26.470Z,123.53
2018-11-27T18:05:53.590Z,109.72
2018-11-27T18:08:20.715Z,117.62
2018-11-27T18:10:47.819Z,119.15
2018-11-27T18:13:14.998Z,115.88
2018-11-27T18:15:42.095Z,113.00
2018-11-27T18:18:09.199Z,113.80
2018-11-27T18:20:36.298Z,104.97
2018-11-27T18:23:03.467Z,120.00
2018-11-27T18:25:30.571Z,105.58
2018-11-27T18:27:57.707Z,112.20
2018-11-27T18:30:24.816Z,120.22
2018-11-27T18:32:51.933Z,118.13
2018-11-27T18:35:21.262Z,117.22
2018-11-27T18:37:48.799Z,118.33
2018-11-27T18:40:16.591Z,116.97
2018-11-27T18:42:43.890Z,111.68
2018-11-27T18:45:16.199Z,119.15
2018-11-27T18:47:43.430Z,121.45
2018-11-27T18:50:10.966Z,93.42
2018-11-27T18:52:38.226Z,111.80
2018-11-27T18:55:10.205Z,120.82
2018-11-27T18:57:37.341Z,112.68
2018-11-27T19:00:10.318Z,113.70
2018-11-27T19:02:37.423Z,110.17
2018-11-27T19:05:05.161Z,110.48
2018-11-27T19:07:32.258Z,106.20
2018-11-27T19:09:59.367Z,102.90
2018-11-27T19:12:26.466Z,122.58
2018-11-27T19:14:53.578Z,120.40
2018-11-27T19:17:20.686Z,111.40
2018-11-27T19:19:47.790Z,108.10
2018-11-27T19:22:14.924Z,111.32
2018-11-27T19:24:42.063Z,107.25
2018-11-27T19:27:09.166Z,100.80
2018-11-27T19:29:36.262Z,92.50
2018-11-27T19:32:03.426Z,87.17
2018-11-27T19:34:30.522Z,89.80
2018-11-27T19:36:57.622Z,83.03
2018-11-27T19:39:24.710Z,85.50
2018-11-27T19:41:51.854Z,76.57
2018-11-27T19:44:18.939Z,81.25
2018-11-27T19:46:46.037Z,75.45
2018-11-27T19:49:13.131Z,73.80
2018-11-27T19:51:40.238Z,72.00
2018-11-27T19:54:07.354Z,69.35
2018-11-27T19:56:34.443Z,63.35
2018-11-27T19:59:01.543Z,66.75
2018-11-27T20:01:28.657Z,64.97
2018-11-27T20:03:55.776Z,67.47
2018-11-27T20:06:22.878Z,67.70
2018-11-27T20:08:49.976Z,62.08
2018-11-27T20:11:17.091Z,58.83
2018-11-27T20:13:44.194Z,58.00
2018-11-27T20:16:11.377Z,53.65
2018-11-27T20:18:38.482Z,57.00
2018-11-27T20:21:05.934Z,52.17
2018-11-27T20:23:33.030Z,53.87
2018-11-27T20:26:00.132Z,52.85
2018-11-27T20:28:27.249Z,51.92
2018-11-27T20:30:54.347Z,47.83
2018-11-27T20:33:21.450Z,48.92
2018-11-27T20:35:48.555Z,49.58
2018-11-27T20:38:15.671Z,47.80
2018-11-27T20:40:42.812Z,46.13
2018-11-27T20:43:09.926Z,42.27
2018-11-27T20:45:37.030Z,42.90
2018-11-27T20:48:18.099Z,42.13
2018-11-27T20:50:46.634Z,44.33
2018-11-27T20:53:13.753Z,38.25
2018-11-27T20:55:41.213Z,41.15
2018-11-27T20:58:08.320Z,39.58
2018-11-27T21:00:36.671Z,43.35
2018-11-27T21:03:04.538Z,36.80
2018-11-27T21:05:31.654Z,40.85
2018-11-27T21:07:58.774Z,40.05
2018-11-27T21:10:25.898Z,40.33
2018-11-27T21:12:53.011Z,39.60
2018-11-27T21:15:20.134Z,42.88
2018-11-27T21:17:47.291Z,42.62
2018-11-27T21:20:15.668Z,40.50
2018-11-27T21:22:42.826Z,40.00
2018-11-27T21:25:26.702Z,37.73
2018-11-27T21:28:06.349Z,38.60
2018-11-27T21:30:33.622Z,40.35
2018-11-27T21:33:00.719Z,35.55
2018-11-27T21:35:27.827Z,40.78
2018-11-27T21:37:54.968Z,35.92
2018-11-27T21:40:22.128Z,36.00
2018-11-27T21:42:49.292Z,38.13
2018-11-27T21:45:20.627Z,39.98
2018-11-27T21:47:48.444Z,37.23
2018-11-27T21:50:16.751Z,38.35
2018-11-27T21:52:43.862Z,38.28
2018-11-27T21:55:12.089Z,36.73
2018-11-27T21:57:39.203Z,39.85
2018-11-27T22:00:13.126Z,37.30
2018-11-27T22:02:40.298Z,38.25
2018-11-27T22:05:08.040Z,38.08
2018-11-27T22:07:35.263Z,36.93
2018-11-27T22:10:03.102Z,37.42
2018-11-27T22:12:30.190Z,34.80
2018-11-27T22:14:57.291Z,36.23
2018-11-27T22:17:24.391Z,38.33
2018-11-27T22:19:51.510Z,35.15
2018-11-27T22:22:18.615Z,36.42
2018-11-27T22:24:45.746Z,36.63
2018-11-27T22:27:12.840Z,35.85
2018-11-27T22:29:39.928Z,35.73
2018-11-27T22:32:07.023Z,34.53
2018-11-27T22:34:34.135Z,38.75
2018-11-27T22:37:01.255Z,35.65
2018-11-27T22:39:28.358Z,34.85
2018-11-27T22:41:55.460Z,33.30
2018-11-27T22:44:22.546Z,36.03
2018-11-27T22:46:49.713Z,35.30
2018-11-27T22:49:16.827Z,35.15
2018-11-27T22:51:43.942Z,34.70
2018-11-27T22:54:11.046Z,36.77
2018-11-27T22:56:38.194Z,37.55
2018-11-27T22:59:05.338Z,37.88
2018-11-27T23:01:37.505Z,36.23
2018-11-27T23:04:06.381Z,38.83
2018-11-27T23:06:33.475Z,35.85
2018-11-27T23:09:00.566Z,35.35
2018-11-27T23:11:27.651Z,40.90
2018-11-27T23:13:54.743Z,36.50
2018-11-27T23:16:21.859Z,38.75
2018-11-27T23:18:48.943Z,36.53
2018-11-27T23:21:16.055Z,37.23
2018-11-27T23:23:43.143Z,39.83
2018-11-27T23:26:10.249Z,35.10
2018-11-27T23:28:37.349Z,38.98
2018-11-27T23:31:05.065Z,36.48
2018-11-27T23:33:31.915Z,37.00
2018-11-27T23:35:59.028Z,36.42
2018-11-27T23:38:26.138Z,34.78
2018-11-27T23:40:53.266Z,37.13
2018-11-27T23:43:20.386Z,38.92
2018-11-27T23:45:47.492Z,35.60
2018-11-27T23:48:14.582Z,36.20
2018-11-27T23:50:41.683Z,38.10
2018-11-27T23:53:08.783Z,37.40
2018-11-27T23:55:35.871Z,33.88
2018-11-27T23:58:02.994Z,41.53
